sensor_id;sensor_type;location;lat;lon;timestamp;P1;durP1;ratioP1;P2;durP2;ratioP2
77736;SDS011;66903;59.926;30.404;2023-03-01T00:02:57;1.45;;;0.40;;
77736;SDS011;66903;59.926;30.404;2023-03-01T00:07:58;2.13;;;0.40;;
77736;SDS011;66903;59.926;30.404;2023-03-01T00:12:59;2.38;;;0.45;;
77736;SDS011;66903;59.926;30.404;2023-03-01T00:17:59;1.30;;;0.50;;
77736;SDS011;66903;59.926;30.404;2023-03-01T00:23:00;0.85;;;0.30;;
77736;SDS011;66903;59.926;30.404;2023-03-01T00:28:00;0.98;;;0.30;;
77736;SDS011;66903;59.926;30.404;2023-03-01T00:33:01;1.75;;;0.50;;
77736;SDS011;66903;59.926;30.404;2023-03-01T00:38:01;1.30;;;0.40;;
77736;SDS011;66903;59.926;30.404;2023-03-01T00:43:03;0.73;;;0.35;;
77736;SDS011;66903;59.926;30.404;2023-03-01T00:48:04;1.20;;;0.45;;
77736;SDS011;66903;59.926;30.404;2023-03-01T00:53:05;1.83;;;0.52;;
77736;SDS011;66903;59.926;30.404;2023-03-01T00:58:06;1.48;;;0.32;;
77736;SDS011;66903;59.926;30.404;2023-03-01T01:03:06;1.83;;;0.60;;
77736;SDS011;66903;59.926;30.404;2023-03-01T01:08:07;1.88;;;0.40;;
77736;SDS011;66903;59.926;30.404;2023-03-01T01:13:07;1.65;;;0.63;;
77736;SDS011;66903;59.926;30.404;2023-03-01T01:18:08;2.03;;;0.50;;
77736;SDS011;66903;59.926;30.404;2023-03-01T01:23:08;1.85;;;0.47;;
77736;SDS011;66903;59.926;30.404;2023-03-01T01:28:09;1.75;;;0.60;;
77736;SDS011;66903;59.926;30.404;2023-03-01T01:33:09;1.52;;;0.50;;
77736;SDS011;66903;59.926;30.404;2023-03-01T01:54:16;1.08;;;0.50;;
77736;SDS011;66903;59.926;30.404;2023-03-01T01:59:25;1.52;;;0.40;;
77736;SDS011;66903;59.926;30.404;2023-03-01T02:04:28;2.28;;;0.50;;
77736;SDS011;66903;59.926;30.404;2023-03-01T02:09:32;0.98;;;0.30;;
77736;SDS011;66903;59.926;30.404;2023-03-01T02:14:34;1.55;;;0.40;;
77736;SDS011;66903;59.926;30.404;2023-03-01T02:19:48;1.55;;;0.40;;
77736;SDS011;66903;59.926;30.404;2023-03-01T02:24:59;0.85;;;0.25;;
77736;SDS011;66903;59.926;30.404;2023-03-01T02:30:04;1.05;;;0.30;;
77736;SDS011;66903;59.926;30.404;2023-03-01T02:35:05;0.55;;;0.30;;
77736;SDS011;66903;59.926;30.404;2023-03-01T02:40:07;1.65;;;0.60;;
77736;SDS011;66903;59.926;30.404;2023-03-01T02:45:13;1.02;;;0.38;;
77736;SDS011;66903;59.926;30.404;2023-03-01T02:55:29;0.55;;;0.20;;
77736;SDS011;66903;59.926;30.404;2023-03-01T03:00:34;1.15;;;0.30;;
77736;SDS011;66903;59.926;30.404;2023-03-01T03:05:39;0.13;;;0.13;;
77736;SDS011;66903;59.926;30.404;2023-03-01T03:10:40;0.32;;;0.15;;
77736;SDS011;66903;59.926;30.404;2023-03-01T03:15:43;0.57;;;0.25;;
77736;SDS011;66903;59.926;30.404;2023-03-01T03:20:50;1.02;;;0.30;;
77736;SDS011;66903;59.926;30.404;2023-03-01T03:26:36;0.98;;;0.30;;
77736;SDS011;66903;59.926;30.404;2023-03-01T03:31:43;0.45;;;0.20;;
77736;SDS011;66903;59.926;30.404;2023-03-01T03:36:55;1.52;;;0.28;;
77736;SDS011;66903;59.926;30.404;2023-03-01T03:41:59;1.13;;;0.30;;
77736;SDS011;66903;59.926;30.404;2023-03-01T03:46:59;1.83;;;0.30;;
77736;SDS011;66903;59.926;30.404;2023-03-01T03:52:00;0.38;;;0.28;;
77736;SDS011;66903;59.926;30.404;2023-03-01T03:57:00;0.88;;;0.28;;
77736;SDS011;66903;59.926;30.404;2023-03-01T04:02:01;2.08;;;0.40;;
77736;SDS011;66903;59.926;30.404;2023-03-01T04:07:01;1.17;;;0.30;;
77736;SDS011;66903;59.926;30.404;2023-03-01T04:12:02;1.58;;;0.40;;
77736;SDS011;66903;59.926;30.404;2023-03-01T04:17:02;0.65;;;0.30;;
77736;SDS011;66903;59.926;30.404;2023-03-01T04:22:05;0.98;;;0.20;;
77736;SDS011;66903;59.926;30.404;2023-03-01T04:27:09;1.90;;;0.43;;
77736;SDS011;66903;59.926;30.404;2023-03-01T04:32:10;0.90;;;0.30;;
77736;SDS011;66903;59.926;30.404;2023-03-01T04:37:10;1.63;;;0.40;;
77736;SDS011;66903;59.926;30.404;2023-03-01T04:42:11;1.40;;;0.30;;
77736;SDS011;66903;59.926;30.404;2023-03-01T04:47:12;1.25;;;0.30;;
77736;SDS011;66903;59.926;30.404;2023-03-01T04:52:12;0.82;;;0.30;;
77736;SDS011;66903;59.926;30.404;2023-03-01T04:57:13;0.75;;;0.20;;
77736;SDS011;66903;59.926;30.404;2023-03-01T05:02:13;0.32;;;0.20;;
77736;SDS011;66903;59.926;30.404;2023-03-01T05:07:14;0.88;;;0.40;;
77736;SDS011;66903;59.926;30.404;2023-03-01T05:12:19;0.98;;;0.38;;
77736;SDS011;66903;59.926;30.404;2023-03-01T05:17:19;0.50;;;0.30;;
77736;SDS011;66903;59.926;30.404;2023-03-01T05:22:20;0.63;;;0.25;;
77736;SDS011;66903;59.926;30.404;2023-03-01T05:27:20;0.17;;;0.10;;
77736;SDS011;66903;59.926;30.404;2023-03-01T05:32:22;1.52;;;0.45;;
77736;SDS011;66903;59.926;30.404;2023-03-01T05:37:22;2.35;;;0.40;;
77736;SDS011;66903;59.926;30.404;2023-03-01T05:42:23;1.35;;;0.40;;
77736;SDS011;66903;59.926;30.404;2023-03-01T05:47:23;5.35;;;0.90;;
77736;SDS011;66903;59.926;30.404;2023-03-01T05:52:24;12.13;;;0.70;;
77736;SDS011;66903;59.926;30.404;2023-03-01T05:57:24;1.63;;;0.47;;
77736;SDS011;66903;59.926;30.404;2023-03-01T06:02:25;2.65;;;0.70;;
77736;SDS011;66903;59.926;30.404;2023-03-01T06:13:27;1.25;;;0.40;;
77736;SDS011;66903;59.926;30.404;2023-03-01T06:18:49;2.60;;;0.60;;
77736;SDS011;66903;59.926;30.404;2023-03-01T06:23:49;1.33;;;0.32;;
77736;SDS011;66903;59.926;30.404;2023-03-01T06:28:50;3.80;;;0.60;;
77736;SDS011;66903;59.926;30.404;2023-03-01T06:33:50;1.15;;;0.40;;
77736;SDS011;66903;59.926;30.404;2023-03-01T06:38:51;2.03;;;0.50;;
77736;SDS011;66903;59.926;30.404;2023-03-01T06:43:57;1.17;;;0.43;;
77736;SDS011;66903;59.926;30.404;2023-03-01T06:49:22;1.40;;;0.55;;
77736;SDS011;66903;59.926;30.404;2023-03-01T06:54:35;2.75;;;0.70;;
77736;SDS011;66903;59.926;30.404;2023-03-01T06:59:35;1.63;;;0.47;;
77736;SDS011;66903;59.926;30.404;2023-03-01T07:04:36;2.17;;;0.50;;
77736;SDS011;66903;59.926;30.404;2023-03-01T07:09:36;5.75;;;0.75;;
77736;SDS011;66903;59.926;30.404;2023-03-01T07:14:37;3.08;;;0.47;;
77736;SDS011;66903;59.926;30.404;2023-03-01T07:19:37;2.97;;;0.40;;
77736;SDS011;66903;59.926;30.404;2023-03-01T07:24:38;1.35;;;0.40;;
77736;SDS011;66903;59.926;30.404;2023-03-01T07:29:38;3.80;;;0.70;;
77736;SDS011;66903;59.926;30.404;2023-03-01T07:34:39;1.55;;;0.50;;
77736;SDS011;66903;59.926;30.404;2023-03-01T07:39:40;1.83;;;0.55;;
77736;SDS011;66903;59.926;30.404;2023-03-01T07:44:40;2.78;;;0.60;;
77736;SDS011;66903;59.926;30.404;2023-03-01T07:49:41;1.52;;;0.50;;
77736;SDS011;66903;59.926;30.404;2023-03-01T07:54:47;3.45;;;0.73;;
77736;SDS011;66903;59.926;30.404;2023-03-01T08:00:07;1.67;;;0.40;;
77736;SDS011;66903;59.926;30.404;2023-03-01T08:05:10;1.50;;;0.50;;
77736;SDS011;66903;59.926;30.404;2023-03-01T08:10:10;0.90;;;0.30;;
77736;SDS011;66903;59.926;30.404;2023-03-01T08:15:11;1.80;;;0.50;;
77736;SDS011;66903;59.926;30.404;2023-03-01T08:20:12;1.33;;;0.50;;
77736;SDS011;66903;59.926;30.404;2023-03-01T08:25:12;2.45;;;0.50;;
77736;SDS011;66903;59.926;30.404;2023-03-01T08:30:13;1.30;;;0.50;;
77736;SDS011;66903;59.926;30.404;2023-03-01T08:35:13;1.02;;;0.50;;
77736;SDS011;66903;59.926;30.404;2023-03-01T08:40:14;1.48;;;0.50;;
77736;SDS011;66903;59.926;30.404;2023-03-01T08:45:15;1.20;;;0.35;;
77736;SDS011;66903;59.926;30.404;2023-03-01T08:50:18;2.58;;;0.70;;
77736;SDS011;66903;59.926;30.404;2023-03-01T08:55:18;1.08;;;0.40;;
77736;SDS011;66903;59.926;30.404;2023-03-01T09:00:19;1.10;;;0.38;;
77736;SDS011;66903;59.926;30.404;2023-03-01T09:05:20;1.65;;;0.52;;
77736;SDS011;66903;59.926;30.404;2023-03-01T09:10:20;1.23;;;0.57;;
77736;SDS011;66903;59.926;30.404;2023-03-01T09:15:21;0.60;;;0.30;;
77736;SDS011;66903;59.926;30.404;2023-03-01T09:20:21;1.10;;;0.43;;
77736;SDS011;66903;59.926;30.404;2023-03-01T09:25:23;0.75;;;0.40;;
77736;SDS011;66903;59.926;30.404;2023-03-01T09:30:24;0.85;;;0.40;;
77736;SDS011;66903;59.926;30.404;2023-03-01T09:35:24;1.65;;;0.40;;
77736;SDS011;66903;59.926;30.404;2023-03-01T09:40:25;1.77;;;0.50;;
77736;SDS011;66903;59.926;30.404;2023-03-01T09:45:38;0.75;;;0.35;;
77736;SDS011;66903;59.926;30.404;2023-03-01T09:50:42;2.10;;;0.43;;
77736;SDS011;66903;59.926;30.404;2023-03-01T09:55:59;1.17;;;0.25;;
77736;SDS011;66903;59.926;30.404;2023-03-01T10:06:44;1.63;;;0.43;;
77736;SDS011;66903;59.926;30.404;2023-03-01T10:11:55;2.08;;;0.40;;
77736;SDS011;66903;59.926;30.404;2023-03-01T10:17:04;1.55;;;0.43;;
77736;SDS011;66903;59.926;30.404;2023-03-01T10:22:19;4.47;;;0.40;;
77736;SDS011;66903;59.926;30.404;2023-03-01T10:27:29;1.15;;;0.40;;
77736;SDS011;66903;59.926;30.404;2023-03-01T10:32:37;1.63;;;0.47;;
77736;SDS011;66903;59.926;30.404;2023-03-01T10:37:38;0.88;;;0.25;;
77736;SDS011;66903;59.926;30.404;2023-03-01T10:42:57;1.63;;;0.40;;
77736;SDS011;66903;59.926;30.404;2023-03-01T10:48:10;1.60;;;0.45;;
77736;SDS011;66903;59.926;30.404;2023-03-01T10:58:29;2.90;;;0.50;;
77736;SDS011;66903;59.926;30.404;2023-03-01T11:03:32;1.33;;;0.43;;
77736;SDS011;66903;59.926;30.404;2023-03-01T11:13:35;0.95;;;0.40;;
77736;SDS011;66903;59.926;30.404;2023-03-01T11:18:37;1.63;;;0.50;;
77736;SDS011;66903;59.926;30.404;2023-03-01T11:23:37;0.75;;;0.20;;
77736;SDS011;66903;59.926;30.404;2023-03-01T11:28:40;2.25;;;0.50;;
77736;SDS011;66903;59.926;30.404;2023-03-01T11:44:25;0.88;;;0.30;;
77736;SDS011;66903;59.926;30.404;2023-03-01T11:59:59;1.15;;;0.40;;
77736;SDS011;66903;59.926;30.404;2023-03-01T12:37:54;4.93;;;0.73;;
77736;SDS011;66903;59.926;30.404;2023-03-01T12:53:39;1.95;;;0.52;;
77736;SDS011;66903;59.926;30.404;2023-03-01T13:19:26;1.35;;;0.50;;
77736;SDS011;66903;59.926;30.404;2023-03-01T13:24:42;1.48;;;0.47;;
77736;SDS011;66903;59.926;30.404;2023-03-01T13:34:58;1.48;;;0.93;;
77736;SDS011;66903;59.926;30.404;2023-03-01T13:40:05;0.63;;;0.30;;
77736;SDS011;66903;59.926;30.404;2023-03-01T13:45:26;3.53;;;0.60;;
77736;SDS011;66903;59.926;30.404;2023-03-01T13:50:47;1.17;;;0.43;;
77736;SDS011;66903;59.926;30.404;2023-03-01T13:55:52;0.80;;;0.30;;
77736;SDS011;66903;59.926;30.404;2023-03-01T14:01:07;0.93;;;0.40;;
77736;SDS011;66903;59.926;30.404;2023-03-01T14:06:21;1.13;;;0.45;;
77736;SDS011;66903;59.926;30.404;2023-03-01T14:11:43;0.63;;;0.28;;
77736;SDS011;66903;59.926;30.404;2023-03-01T14:22:50;1.10;;;0.40;;
77736;SDS011;66903;59.926;30.404;2023-03-01T14:33:04;2.55;;;0.40;;
77736;SDS011;66903;59.926;30.404;2023-03-01T14:38:19;1.17;;;0.40;;
77736;SDS011;66903;59.926;30.404;2023-03-01T14:43:21;1.00;;;0.32;;
77736;SDS011;66903;59.926;30.404;2023-03-01T14:48:24;2.28;;;0.38;;
77736;SDS011;66903;59.926;30.404;2023-03-01T14:53:27;0.20;;;0.20;;
77736;SDS011;66903;59.926;30.404;2023-03-01T14:58:31;1.17;;;0.20;;
77736;SDS011;66903;59.926;30.404;2023-03-01T15:03:42;1.50;;;0.20;;
77736;SDS011;66903;59.926;30.404;2023-03-01T15:08:45;1.13;;;0.40;;
77736;SDS011;66903;59.926;30.404;2023-03-01T15:13:48;0.93;;;0.35;;
77736;SDS011;66903;59.926;30.404;2023-03-01T15:18:49;1.75;;;0.40;;
77736;SDS011;66903;59.926;30.404;2023-03-01T15:23:54;0.63;;;0.30;;
77736;SDS011;66903;59.926;30.404;2023-03-01T15:29:21;1.20;;;0.30;;
77736;SDS011;66903;59.926;30.404;2023-03-01T15:34:30;1.38;;;0.30;;
77736;SDS011;66903;59.926;30.404;2023-03-01T15:39:38;2.30;;;0.80;;
77736;SDS011;66903;59.926;30.404;2023-03-01T15:44:43;0.68;;;0.30;;
77736;SDS011;66903;59.926;30.404;2023-03-01T15:49:45;2.78;;;0.73;;
77736;SDS011;66903;59.926;30.404;2023-03-01T15:54:45;0.82;;;0.32;;
77736;SDS011;66903;59.926;30.404;2023-03-01T15:59:46;1.27;;;0.50;;
77736;SDS011;66903;59.926;30.404;2023-03-01T16:04:47;2.65;;;0.30;;
77736;SDS011;66903;59.926;30.404;2023-03-01T16:09:51;0.77;;;0.30;;
77736;SDS011;66903;59.926;30.404;2023-03-01T16:15:01;1.38;;;0.50;;
77736;SDS011;66903;59.926;30.404;2023-03-01T16:20:22;0.28;;;0.15;;
77736;SDS011;66903;59.926;30.404;2023-03-01T16:25:32;0.82;;;0.30;;
77736;SDS011;66903;59.926;30.404;2023-03-01T16:30:46;2.30;;;0.40;;
77736;SDS011;66903;59.926;30.404;2023-03-01T16:35:50;0.35;;;0.10;;
77736;SDS011;66903;59.926;30.404;2023-03-01T16:40:51;2.30;;;0.47;;
77736;SDS011;66903;59.926;30.404;2023-03-01T16:45:52;2.83;;;0.30;;
77736;SDS011;66903;59.926;30.404;2023-03-01T16:50:59;0.63;;;0.20;;
77736;SDS011;66903;59.926;30.404;2023-03-01T16:56:01;1.08;;;0.38;;
77736;SDS011;66903;59.926;30.404;2023-03-01T17:01:16;1.13;;;0.40;;
77736;SDS011;66903;59.926;30.404;2023-03-01T17:06:31;1.63;;;0.50;;
77736;SDS011;66903;59.926;30.404;2023-03-01T17:11:40;5.68;;;0.73;;
77736;SDS011;66903;59.926;30.404;2023-03-01T17:16:41;1.98;;;0.32;;
77736;SDS011;66903;59.926;30.404;2023-03-01T17:21:43;0.25;;;0.20;;
77736;SDS011;66903;59.926;30.404;2023-03-01T17:26:44;2.05;;;0.40;;
77736;SDS011;66903;59.926;30.404;2023-03-01T17:31:45;1.45;;;0.35;;
77736;SDS011;66903;59.926;30.404;2023-03-01T17:36:46;1.20;;;0.45;;
77736;SDS011;66903;59.926;30.404;2023-03-01T17:41:49;1.15;;;0.28;;
77736;SDS011;66903;59.926;30.404;2023-03-01T17:46:50;2.20;;;0.35;;
77736;SDS011;66903;59.926;30.404;2023-03-01T17:51:50;1.90;;;0.50;;
77736;SDS011;66903;59.926;30.404;2023-03-01T17:56:51;2.50;;;0.60;;
77736;SDS011;66903;59.926;30.404;2023-03-01T18:01:52;1.77;;;0.60;;
77736;SDS011;66903;59.926;30.404;2023-03-01T18:06:53;1.67;;;0.50;;
77736;SDS011;66903;59.926;30.404;2023-03-01T18:11:55;2.33;;;0.50;;
77736;SDS011;66903;59.926;30.404;2023-03-01T18:16:55;1.38;;;0.40;;
77736;SDS011;66903;59.926;30.404;2023-03-01T18:21:56;1.52;;;0.30;;
77736;SDS011;66903;59.926;30.404;2023-03-01T18:26:56;3.47;;;0.60;;
77736;SDS011;66903;59.926;30.404;2023-03-01T18:31:57;6.85;;;0.60;;
77736;SDS011;66903;59.926;30.404;2023-03-01T18:36:57;2.80;;;0.40;;
77736;SDS011;66903;59.926;30.404;2023-03-01T18:41:58;1.52;;;0.40;;
77736;SDS011;66903;59.926;30.404;2023-03-01T18:46:58;2.63;;;0.50;;
77736;SDS011;66903;59.926;30.404;2023-03-01T18:51:59;1.98;;;0.50;;
77736;SDS011;66903;59.926;30.404;2023-03-01T18:57:00;1.38;;;0.40;;
77736;SDS011;66903;59.926;30.404;2023-03-01T19:02:00;3.35;;;0.50;;
77736;SDS011;66903;59.926;30.404;2023-03-01T19:07:01;1.42;;;0.45;;
77736;SDS011;66903;59.926;30.404;2023-03-01T19:12:02;1.70;;;0.47;;
77736;SDS011;66903;59.926;30.404;2023-03-01T19:17:05;1.85;;;0.40;;
77736;SDS011;66903;59.926;30.404;2023-03-01T19:22:05;1.70;;;0.47;;
77736;SDS011;66903;59.926;30.404;2023-03-01T19:27:06;2.67;;;1.00;;
77736;SDS011;66903;59.926;30.404;2023-03-01T19:32:07;29.52;;;22.13;;
77736;SDS011;66903;59.926;30.404;2023-03-01T19:37:08;81.90;;;61.28;;
77736;SDS011;66903;59.926;30.404;2023-03-01T19:42:09;108.55;;;83.22;;
77736;SDS011;66903;59.926;30.404;2023-03-01T19:47:10;109.60;;;84.35;;
77736;SDS011;66903;59.926;30.404;2023-03-01T19:52:11;133.55;;;98.88;;
77736;SDS011;66903;59.926;30.404;2023-03-01T19:57:11;125.45;;;94.32;;
77736;SDS011;66903;59.926;30.404;2023-03-01T20:02:12;106.15;;;77.97;;
77736;SDS011;66903;59.926;30.404;2023-03-01T20:07:12;81.70;;;59.72;;
77736;SDS011;66903;59.926;30.404;2023-03-01T20:12:13;61.10;;;44.35;;
77736;SDS011;66903;59.926;30.404;2023-03-01T20:17:13;45.30;;;33.17;;
77736;SDS011;66903;59.926;30.404;2023-03-01T20:22:14;30.88;;;22.77;;
77736;SDS011;66903;59.926;30.404;2023-03-01T20:27:14;21.45;;;15.13;;
77736;SDS011;66903;59.926;30.404;2023-03-01T20:32:15;15.45;;;10.02;;
77736;SDS011;66903;59.926;30.404;2023-03-01T20:37:16;11.15;;;6.53;;
77736;SDS011;66903;59.926;30.404;2023-03-01T20:42:16;7.68;;;4.00;;
77736;SDS011;66903;59.926;30.404;2023-03-01T20:47:17;5.88;;;2.60;;
77736;SDS011;66903;59.926;30.404;2023-03-01T20:52:20;3.92;;;1.70;;
77736;SDS011;66903;59.926;30.404;2023-03-01T20:57:20;4.22;;;1.27;;
77736;SDS011;66903;59.926;30.404;2023-03-01T21:02:21;5.88;;;1.40;;
77736;SDS011;66903;59.926;30.404;2023-03-01T21:07:21;2.63;;;0.75;;
77736;SDS011;66903;59.926;30.404;2023-03-01T21:12:22;2.67;;;0.90;;
77736;SDS011;66903;59.926;30.404;2023-03-01T21:17:31;3.00;;;0.70;;
77736;SDS011;66903;59.926;30.404;2023-03-01T21:22:50;2.45;;;0.75;;
77736;SDS011;66903;59.926;30.404;2023-03-01T21:27:50;1.73;;;0.57;;
77736;SDS011;66903;59.926;30.404;2023-03-01T21:32:51;2.33;;;0.45;;
77736;SDS011;66903;59.926;30.404;2023-03-01T21:37:51;2.13;;;0.52;;
77736;SDS011;66903;59.926;30.404;2023-03-01T21:42:55;1.55;;;0.52;;
77736;SDS011;66903;59.926;30.404;2023-03-01T21:47:58;2.13;;;0.68;;
77736;SDS011;66903;59.926;30.404;2023-03-01T21:52:59;0.95;;;0.35;;
77736;SDS011;66903;59.926;30.404;2023-03-01T21:58:07;1.38;;;0.50;;
77736;SDS011;66903;59.926;30.404;2023-03-01T22:03:07;4.40;;;0.68;;
77736;SDS011;66903;59.926;30.404;2023-03-01T22:08:11;1.90;;;0.60;;
77736;SDS011;66903;59.926;30.404;2023-03-01T22:13:24;1.60;;;0.50;;
77736;SDS011;66903;59.926;30.404;2023-03-01T22:19:00;1.95;;;0.60;;
77736;SDS011;66903;59.926;30.404;2023-03-01T22:35:56;1.83;;;0.50;;
77736;SDS011;66903;59.926;30.404;2023-03-01T22:41:00;1.88;;;0.60;;
77736;SDS011;66903;59.926;30.404;2023-03-01T22:46:09;1.45;;;0.50;;
77736;SDS011;66903;59.926;30.404;2023-03-01T22:51:21;2.15;;;0.75;;
77736;SDS011;66903;59.926;30.404;2023-03-01T22:56:38;1.80;;;0.65;;
77736;SDS011;66903;59.926;30.404;2023-03-01T23:01:40;2.10;;;0.80;;
77736;SDS011;66903;59.926;30.404;2023-03-01T23:12:09;2.25;;;0.70;;
77736;SDS011;66903;59.926;30.404;2023-03-01T23:17:28;1.30;;;0.50;;
77736;SDS011;66903;59.926;30.404;2023-03-01T23:22:29;2.28;;;0.75;;
77736;SDS011;66903;59.926;30.404;2023-03-01T23:27:30;1.20;;;0.50;;
77736;SDS011;66903;59.926;30.404;2023-03-01T23:32:31;1.45;;;0.50;;
77736;SDS011;66903;59.926;30.404;2023-03-01T23:37:39;3.00;;;0.80;;
77736;SDS011;66903;59.926;30.404;2023-03-01T23:42:39;2.20;;;0.63;;
77736;SDS011;66903;59.926;30.404;2023-03-01T23:53:19;2.25;;;0.65;;
77736;SDS011;66903;59.926;30.404;2023-03-01T23:58:20;2.00;;;0.68;;
